sensor_id;sensor_type;location;lat;lon;timestamp;pressure;altitude;pressure_sealevel;temperature;humidity
11710;BME280;5911;51.036;6.972;2022-11-20T00:00:56;100397.81;;;7.88;97.56
11710;BME280;5911;51.036;6.972;2022-11-20T00:03:24;100392.34;;;7.91;100.00
11710;BME280;5911;51.036;6.972;2022-11-20T00:05:52;100399.38;;;7.91;98.34
11710;BME280;5911;51.036;6.972;2022-11-20T00:08:21;100397.19;;;7.85;97.63
11710;BME280;5911;51.036;6.972;2022-11-20T00:10:49;100398.38;;;7.81;96.99
11710;BME280;5911;51.036;6.972;2022-11-20T00:13:17;100403.41;;;7.84;98.34
11710;BME280;5911;51.036;6.972;2022-11-20T00:15:44;100396.38;;;7.84;98.91
11710;BME280;5911;51.036;6.972;2022-11-20T00:18:12;100396.47;;;7.83;98.47
11710;BME280;5911;51.036;6.972;2022-11-20T00:20:40;100398.03;;;7.85;97.86
11710;BME280;5911;51.036;6.972;2022-11-20T00:23:08;100394.22;;;7.78;97.56
11710;BME280;5911;51.036;6.972;2022-11-20T00:25:37;100380.91;;;7.68;97.94
11710;BME280;5911;51.036;6.972;2022-11-20T00:28:05;100395.75;;;7.81;98.45
11710;BME280;5911;51.036;6.972;2022-11-20T00:30:32;100394.69;;;7.83;97.74
11710;BME280;5911;51.036;6.972;2022-11-20T00:33:00;100392.91;;;7.84;97.77
11710;BME280;5911;51.036;6.972;2022-11-20T00:35:28;100358.44;;;7.64;97.79
11710;BME280;5911;51.036;6.972;2022-11-20T00:37:56;100396.22;;;7.74;96.12
11710;BME280;5911;51.036;6.972;2022-11-20T00:40:23;100370.47;;;7.56;98.52
11710;BME280;5911;51.036;6.972;2022-11-20T00:42:53;100394.06;;;7.80;98.32
11710;BME280;5911;51.036;6.972;2022-11-20T00:45:20;100367.53;;;7.60;96.49
11710;BME280;5911;51.036;6.972;2022-11-20T00:47:48;100389.28;;;7.73;97.40
11710;BME280;5911;51.036;6.972;2022-11-20T00:50:16;100394.31;;;7.76;96.83
11710;BME280;5911;51.036;6.972;2022-11-20T00:52:44;100393.25;;;7.79;97.91
11710;BME280;5911;51.036;6.972;2022-11-20T00:55:11;100373.97;;;7.67;96.44
11710;BME280;5911;51.036;6.972;2022-11-20T00:57:39;100390.03;;;7.75;96.37
11710;BME280;5911;51.036;6.972;2022-11-20T01:00:09;100393.69;;;7.73;97.01
11710;BME280;5911;51.036;6.972;2022-11-20T01:02:37;100385.72;;;7.74;97.91
11710;BME280;5911;51.036;6.972;2022-11-20T01:05:05;100386.78;;;7.72;95.57
11710;BME280;5911;51.036;6.972;2022-11-20T01:07:33;100357.94;;;7.48;95.29
11710;BME280;5911;51.036;6.972;2022-11-20T01:10:01;100382.59;;;7.69;96.42
11710;BME280;5911;51.036;6.972;2022-11-20T01:12:29;100388.16;;;7.65;95.70
11710;BME280;5911;51.036;6.972;2022-11-20T01:14:57;100384.47;;;7.67;96.16
11710;BME280;5911;51.036;6.972;2022-11-20T01:17:26;100372.78;;;7.60;98.15
11710;BME280;5911;51.036;6.972;2022-11-20T01:19:54;100391.19;;;7.71;98.18
11710;BME280;5911;51.036;6.972;2022-11-20T01:22:22;100335.91;;;7.38;96.26
11710;BME280;5911;51.036;6.972;2022-11-20T01:24:49;100384.03;;;7.73;97.27
11710;BME280;5911;51.036;6.972;2022-11-20T01:27:17;100377.56;;;7.66;96.50
11710;BME280;5911;51.036;6.972;2022-11-20T01:29:45;100390.34;;;7.71;95.46
11710;BME280;5911;51.036;6.972;2022-11-20T01:32:13;100385.72;;;7.74;97.11
11710;BME280;5911;51.036;6.972;2022-11-20T01:34:42;100384.75;;;7.75;97.20
11710;BME280;5911;51.036;6.972;2022-11-20T01:37:10;100383.19;;;7.73;97.71
11710;BME280;5911;51.036;6.972;2022-11-20T01:39:37;100386.56;;;7.75;95.45
11710;BME280;5911;51.036;6.972;2022-11-20T01:42:06;100250.28;;;6.89;96.20
11710;BME280;5911;51.036;6.972;2022-11-20T01:44:55;100376.50;;;7.69;96.33
11710;BME280;5911;51.036;6.972;2022-11-20T01:47:33;100383.63;;;7.67;93.45
11710;BME280;5911;51.036;6.972;2022-11-20T01:50:06;100363.69;;;7.64;95.31
11710;BME280;5911;51.036;6.972;2022-11-20T01:52:41;100338.13;;;7.55;98.35
11710;BME280;5911;51.036;6.972;2022-11-20T01:55:13;100338.81;;;7.46;96.59
11710;BME280;5911;51.036;6.972;2022-11-20T01:57:44;100373.53;;;7.73;96.36
11710;BME280;5911;51.036;6.972;2022-11-20T02:00:14;100366.59;;;7.72;98.32
11710;BME280;5911;51.036;6.972;2022-11-20T02:02:46;100330.25;;;7.55;96.14
11710;BME280;5911;51.036;6.972;2022-11-20T02:05:22;100337.19;;;7.56;97.03
11710;BME280;5911;51.036;6.972;2022-11-20T02:07:52;100358.72;;;7.72;96.05
11710;BME280;5911;51.036;6.972;2022-11-20T02:10:21;100364.22;;;7.69;94.66
11710;BME280;5911;51.036;6.972;2022-11-20T02:12:49;100363.25;;;7.70;96.00
11710;BME280;5911;51.036;6.972;2022-11-20T02:15:35;100355.28;;;7.72;97.93
11710;BME280;5911;51.036;6.972;2022-11-20T02:18:03;100331.59;;;7.61;98.37
11710;BME280;5911;51.036;6.972;2022-11-20T02:20:33;100361.34;;;7.72;99.05
11710;BME280;5911;51.036;6.972;2022-11-20T02:23:05;100356.09;;;7.72;98.70
11710;BME280;5911;51.036;6.972;2022-11-20T02:25:37;100350.63;;;7.75;97.96
11710;BME280;5911;51.036;6.972;2022-11-20T02:28:06;100345.59;;;7.72;97.17
11710;BME280;5911;51.036;6.972;2022-11-20T02:30:33;100347.06;;;7.76;98.56
11710;BME280;5911;51.036;6.972;2022-11-20T02:33:01;100333.00;;;7.78;98.77
11710;BME280;5911;51.036;6.972;2022-11-20T02:35:43;100331.31;;;7.76;97.60
11710;BME280;5911;51.036;6.972;2022-11-20T02:38:11;100334.88;;;7.75;99.08
11710;BME280;5911;51.036;6.972;2022-11-20T02:40:40;100336.78;;;7.73;97.02
11710;BME280;5911;51.036;6.972;2022-11-20T02:43:09;100331.75;;;7.70;96.82
11710;BME280;5911;51.036;6.972;2022-11-20T02:45:37;100333.44;;;7.71;97.87
11710;BME280;5911;51.036;6.972;2022-11-20T02:48:06;100332.38;;;7.74;98.84
11710;BME280;5911;51.036;6.972;2022-11-20T02:50:37;100331.97;;;7.67;97.44
11710;BME280;5911;51.036;6.972;2022-11-20T02:53:06;100331.97;;;7.67;97.38
11710;BME280;5911;51.036;6.972;2022-11-20T02:55:34;100323.16;;;7.68;96.84
11710;BME280;5911;51.036;6.972;2022-11-20T02:58:04;100318.84;;;7.67;95.37
11710;BME280;5911;51.036;6.972;2022-11-20T03:00:31;100250.97;;;7.28;96.00
11710;BME280;5911;51.036;6.972;2022-11-20T03:02:59;100313.50;;;7.69;95.49
11710;BME280;5911;51.036;6.972;2022-11-20T03:05:27;100323.25;;;7.67;94.43
11710;BME280;5911;51.036;6.972;2022-11-20T03:07:55;100309.31;;;7.66;94.70
11710;BME280;5911;51.036;6.972;2022-11-20T03:10:23;100312.66;;;7.68;96.25
11710;BME280;5911;51.036;6.972;2022-11-20T03:12:53;100308.72;;;7.63;95.40
11710;BME280;5911;51.036;6.972;2022-11-20T03:15:22;100317.66;;;7.60;93.63
11710;BME280;5911;51.036;6.972;2022-11-20T03:17:53;100267.69;;;7.38;96.43
11710;BME280;5911;51.036;6.972;2022-11-20T03:20:21;100316.44;;;7.64;97.76
11710;BME280;5911;51.036;6.972;2022-11-20T03:22:48;100252.31;;;7.10;96.28
11710;BME280;5911;51.036;6.972;2022-11-20T03:25:16;100330.16;;;7.57;97.47
11710;BME280;5911;51.036;6.972;2022-11-20T03:27:44;100320.50;;;7.57;96.00
11710;BME280;5911;51.036;6.972;2022-11-20T03:32:42;100312.59;;;7.46;97.79
11710;BME280;5911;51.036;6.972;2022-11-20T03:35:09;100315.47;;;7.54;96.84
11710;BME280;5911;51.036;6.972;2022-11-20T03:37:37;100328.06;;;7.49;96.89
11710;BME280;5911;51.036;6.972;2022-11-20T03:40:06;100332.28;;;7.52;96.98
11710;BME280;5911;51.036;6.972;2022-11-20T03:42:34;100330.25;;;7.55;98.63
11710;BME280;5911;51.036;6.972;2022-11-20T03:45:15;100329.53;;;7.53;97.26
11710;BME280;5911;51.036;6.972;2022-11-20T03:47:45;100325.34;;;7.51;96.69
11710;BME280;5911;51.036;6.972;2022-11-20T03:50:14;100297.91;;;7.44;99.33
11710;BME280;5911;51.036;6.972;2022-11-20T03:52:42;100320.94;;;7.51;96.52
11710;BME280;5911;51.036;6.972;2022-11-20T03:55:10;100326.06;;;7.53;98.03
11710;BME280;5911;51.036;6.972;2022-11-20T03:57:38;100320.94;;;7.51;99.38
11710;BME280;5911;51.036;6.972;2022-11-20T04:00:06;100318.56;;;7.48;99.75
11710;BME280;5911;51.036;6.972;2022-11-20T04:02:34;100313.16;;;7.50;99.27
11710;BME280;5911;51.036;6.972;2022-11-20T04:05:04;100315.69;;;7.51;98.39
11710;BME280;5911;51.036;6.972;2022-11-20T04:07:33;100317.59;;;7.49;100.00
11710;BME280;5911;51.036;6.972;2022-11-20T04:10:02;100312.13;;;7.52;100.00
11710;BME280;5911;51.036;6.972;2022-11-20T04:12:32;100303.38;;;7.40;97.27
11710;BME280;5911;51.036;6.972;2022-11-20T04:14:59;100298.94;;;7.41;100.00
11710;BME280;5911;51.036;6.972;2022-11-20T04:17:27;100297.91;;;7.44;100.00
11710;BME280;5911;51.036;6.972;2022-11-20T04:19:55;100288.03;;;7.47;100.00
11710;BME280;5911;51.036;6.972;2022-11-20T04:22:24;100295.16;;;7.45;100.00
11710;BME280;5911;51.036;6.972;2022-11-20T04:24:52;100288.69;;;7.38;100.00
11710;BME280;5911;51.036;6.972;2022-11-20T04:27:20;100266.94;;;7.25;100.00
11710;BME280;5911;51.036;6.972;2022-11-20T04:29:48;100261.53;;;7.15;100.00
11710;BME280;5911;51.036;6.972;2022-11-20T04:32:16;100311.34;;;7.39;100.00
11710;BME280;5911;51.036;6.972;2022-11-20T04:34:43;100306.09;;;7.39;100.00
11710;BME280;5911;51.036;6.972;2022-11-20T04:37:11;100305.16;;;7.40;99.51
11710;BME280;5911;51.036;6.972;2022-11-20T04:39:40;100305.16;;;7.40;100.00
11710;BME280;5911;51.036;6.972;2022-11-20T04:42:08;100295.16;;;7.45;100.00
11710;BME280;5911;51.036;6.972;2022-11-20T04:44:54;100302.31;;;7.43;99.25
11710;BME280;5911;51.036;6.972;2022-11-20T04:47:22;100307.66;;;7.41;100.00
11710;BME280;5911;51.036;6.972;2022-11-20T04:49:50;100313.03;;;7.40;99.60
11710;BME280;5911;51.036;6.972;2022-11-20T04:52:18;100307.78;;;7.40;100.00
11710;BME280;5911;51.036;6.972;2022-11-20T04:54:47;100311.00;;;7.44;100.00
11710;BME280;5911;51.036;6.972;2022-11-20T04:57:15;100305.88;;;7.42;100.00
11710;BME280;5911;51.036;6.972;2022-11-20T04:59:43;100319.09;;;7.40;100.00
11710;BME280;5911;51.036;6.972;2022-11-20T05:02:11;100311.13;;;7.42;100.00
11710;BME280;5911;51.036;6.972;2022-11-20T05:04:39;100299.75;;;7.30;100.00
11710;BME280;5911;51.036;6.972;2022-11-20T05:07:06;100318.88;;;7.44;100.00
11710;BME280;5911;51.036;6.972;2022-11-20T05:09:34;100316.38;;;7.42;100.00
11710;BME280;5911;51.036;6.972;2022-11-20T05:12:04;100321.19;;;7.48;100.00
11710;BME280;5911;51.036;6.972;2022-11-20T05:14:32;100316.38;;;7.42;100.00
11710;BME280;5911;51.036;6.972;2022-11-20T05:16:59;100325.44;;;7.49;100.00
11710;BME280;5911;51.036;6.972;2022-11-20T05:19:27;100322.81;;;7.49;100.00
11710;BME280;5911;51.036;6.972;2022-11-20T05:21:56;100316.47;;;7.40;100.00
11710;BME280;5911;51.036;6.972;2022-11-20T05:24:24;100323.81;;;7.48;100.00
11710;BME280;5911;51.036;6.972;2022-11-20T05:26:51;100301.06;;;7.36;100.00
11710;BME280;5911;51.036;6.972;2022-11-20T05:29:20;100318.56;;;7.48;100.00
11710;BME280;5911;51.036;6.972;2022-11-20T05:31:49;100312.84;;;7.54;100.00
11710;BME280;5911;51.036;6.972;2022-11-20T05:34:16;100307.69;;;7.53;100.00
11710;BME280;5911;51.036;6.972;2022-11-20T05:36:44;100306.03;;;7.52;100.00
11710;BME280;5911;51.036;6.972;2022-11-20T05:39:12;100307.81;;;7.51;100.00
11710;BME280;5911;51.036;6.972;2022-11-20T05:41:39;100307.81;;;7.51;100.00
11710;BME280;5911;51.036;6.972;2022-11-20T05:44:10;100300.88;;;7.50;100.00
11710;BME280;5911;51.036;6.972;2022-11-20T05:46:39;100311.50;;;7.49;100.00
11710;BME280;5911;51.036;6.972;2022-11-20T05:49:07;100309.59;;;7.51;100.00
11710;BME280;5911;51.036;6.972;2022-11-20T05:51:35;100315.94;;;7.48;100.00
11710;BME280;5911;51.036;6.972;2022-11-20T05:54:02;100309.22;;;7.44;100.00
11710;BME280;5911;51.036;6.972;2022-11-20T05:56:30;100306.72;;;7.43;100.00
11710;BME280;5911;51.036;6.972;2022-11-20T05:58:59;100305.38;;;7.37;100.00
11710;BME280;5911;51.036;6.972;2022-11-20T06:01:26;100302.97;;;7.34;100.00
11710;BME280;5911;51.036;6.972;2022-11-20T06:03:55;100303.47;;;7.39;100.00
11710;BME280;5911;51.036;6.972;2022-11-20T06:06:23;100284.56;;;7.23;100.00
11710;BME280;5911;51.036;6.972;2022-11-20T06:08:52;100294.84;;;7.26;100.00
11710;BME280;5911;51.036;6.972;2022-11-20T06:11:20;100303.94;;;7.33;100.00
11710;BME280;5911;51.036;6.972;2022-11-20T06:13:51;100287.19;;;7.23;100.00
11710;BME280;5911;51.036;6.972;2022-11-20T06:16:19;100297.34;;;7.27;100.00
11710;BME280;5911;51.036;6.972;2022-11-20T06:18:48;100304.88;;;7.32;100.00
11710;BME280;5911;51.036;6.972;2022-11-20T06:21:19;100308.69;;;7.28;100.00
11710;BME280;5911;51.036;6.972;2022-11-20T06:23:48;100298.50;;;7.23;100.00
11710;BME280;5911;51.036;6.972;2022-11-20T06:26:18;100301.81;;;7.14;100.00
11710;BME280;5911;51.036;6.972;2022-11-20T06:28:46;100293.84;;;7.16;100.00
11710;BME280;5911;51.036;6.972;2022-11-20T06:31:16;100294.28;;;7.10;100.00
11710;BME280;5911;51.036;6.972;2022-11-20T06:33:47;100291.13;;;7.04;100.00
11710;BME280;5911;51.036;6.972;2022-11-20T06:36:21;100284.22;;;7.03;100.00
11710;BME280;5911;51.036;6.972;2022-11-20T06:38:49;100294.53;;;6.94;100.00
11710;BME280;5911;51.036;6.972;2022-11-20T06:41:19;100300.63;;;6.94;100.00
11710;BME280;5911;51.036;6.972;2022-11-20T06:43:48;100313.63;;;6.96;100.00
11710;BME280;5911;51.036;6.972;2022-11-20T06:46:17;100312.78;;;6.95;100.00
11710;BME280;5911;51.036;6.972;2022-11-20T06:48:45;100309.88;;;6.87;100.00
11710;BME280;5911;51.036;6.972;2022-11-20T06:51:13;100313.66;;;6.83;100.00
11710;BME280;5911;51.036;6.972;2022-11-20T06:53:43;100305.59;;;6.86;100.00
11710;BME280;5911;51.036;6.972;2022-11-20T06:56:11;100320.38;;;6.87;100.00
11710;BME280;5911;51.036;6.972;2022-11-20T06:58:39;100309.16;;;6.85;100.00
11710;BME280;5911;51.036;6.972;2022-11-20T07:01:09;100310.50;;;6.78;100.00
11710;BME280;5911;51.036;6.972;2022-11-20T07:03:37;100313.66;;;6.83;100.00
11710;BME280;5911;51.036;6.972;2022-11-20T07:06:09;100296.50;;;6.66;100.00
11710;BME280;5911;51.036;6.972;2022-11-20T07:08:37;100312.63;;;6.73;100.00
11710;BME280;5911;51.036;6.972;2022-11-20T07:11:06;100320.28;;;6.76;100.00
11710;BME280;5911;51.036;6.972;2022-11-20T07:13:34;100325.41;;;6.78;100.00
11710;BME280;5911;51.036;6.972;2022-11-20T07:16:04;100330.25;;;6.71;100.00
11710;BME280;5911;51.036;6.972;2022-11-20T07:18:32;100290.78;;;6.49;100.00
11710;BME280;5911;51.036;6.972;2022-11-20T07:21:05;100333.38;;;6.76;100.00
11710;BME280;5911;51.036;6.972;2022-11-20T07:23:34;100337.19;;;6.72;100.00
11710;BME280;5911;51.036;6.972;2022-11-20T07:26:03;100337.69;;;6.77;100.00
11710;BME280;5911;51.036;6.972;2022-11-20T07:28:32;100335.06;;;6.77;100.00
11710;BME280;5911;51.036;6.972;2022-11-20T07:31:02;100338.00;;;6.72;100.00
11710;BME280;5911;51.036;6.972;2022-11-20T07:33:30;100340.41;;;6.76;100.00
11710;BME280;5911;51.036;6.972;2022-11-20T07:35:58;100346.38;;;6.78;100.00
11710;BME280;5911;51.036;6.972;2022-11-20T07:38:26;100344.59;;;6.78;100.00
11710;BME280;5911;51.036;6.972;2022-11-20T07:40:54;100335.56;;;6.82;100.00
11710;BME280;5911;51.036;6.972;2022-11-20T07:43:22;100343.34;;;6.84;100.00
11710;BME280;5911;51.036;6.972;2022-11-20T07:45:54;100331.56;;;6.89;100.00
11710;BME280;5911;51.036;6.972;2022-11-20T07:48:22;100332.50;;;6.88;100.00
11710;BME280;5911;51.036;6.972;2022-11-20T07:50:53;100328.84;;;6.91;100.00
11710;BME280;5911;51.036;6.972;2022-11-20T07:53:21;100330.28;;;6.95;100.00
11710;BME280;5911;51.036;6.972;2022-11-20T07:55:49;100326.31;;;7.02;100.00
11710;BME280;5911;51.036;6.972;2022-11-20T07:58:18;100320.91;;;7.03;100.00
11710;BME280;5911;51.036;6.972;2022-11-20T08:00:46;100322.16;;;7.11;100.00
11710;BME280;5911;51.036;6.972;2022-11-20T08:03:16;100323.41;;;7.18;100.00
11710;BME280;5911;51.036;6.972;2022-11-20T08:05:50;100325.31;;;7.16;100.00
11710;BME280;5911;51.036;6.972;2022-11-20T08:08:18;100325.31;;;7.16;100.00
11710;BME280;5911;51.036;6.972;2022-11-20T08:10:46;100306.22;;;7.14;100.00
11710;BME280;5911;51.036;6.972;2022-11-20T08:13:14;100317.50;;;7.27;100.00
11710;BME280;5911;51.036;6.972;2022-11-20T08:15:59;100316.44;;;7.29;100.00
11710;BME280;5911;51.036;6.972;2022-11-20T08:18:28;100308.47;;;7.31;100.00
11710;BME280;5911;51.036;6.972;2022-11-20T08:21:00;100298.63;;;7.22;100.00
11710;BME280;5911;51.036;6.972;2022-11-20T08:23:28;100314.53;;;7.31;100.00
11710;BME280;5911;51.036;6.972;2022-11-20T08:25:56;100322.53;;;7.30;100.00
11710;BME280;5911;51.036;6.972;2022-11-20T08:28:24;100322.41;;;7.31;100.00
11710;BME280;5911;51.036;6.972;2022-11-20T08:30:57;100325.41;;;7.38;100.00
11710;BME280;5911;51.036;6.972;2022-11-20T08:33:27;100318.72;;;7.34;100.00
11710;BME280;5911;51.036;6.972;2022-11-20T08:35:58;100326.88;;;7.42;100.00
11710;BME280;5911;51.036;6.972;2022-11-20T08:38:26;100333.91;;;7.41;100.00
11710;BME280;5911;51.036;6.972;2022-11-20T08:40:57;100334.63;;;7.44;100.00
11710;BME280;5911;51.036;6.972;2022-11-20T08:43:42;100337.16;;;7.45;100.00
11710;BME280;5911;51.036;6.972;2022-11-20T08:46:10;100338.56;;;7.49;100.00
11710;BME280;5911;51.036;6.972;2022-11-20T08:48:40;100335.94;;;7.49;100.00
11710;BME280;5911;51.036;6.972;2022-11-20T08:51:09;100327.63;;;7.55;100.00
11710;BME280;5911;51.036;6.972;2022-11-20T08:53:39;100330.25;;;7.55;100.00
11710;BME280;5911;51.036;6.972;2022-11-20T08:56:07;100332.44;;;7.61;100.00
11710;BME280;5911;51.036;6.972;2022-11-20T08:58:37;100323.22;;;7.56;100.00
11710;BME280;5911;51.036;6.972;2022-11-20T09:01:25;100328.03;;;7.62;100.00
11710;BME280;5911;51.036;6.972;2022-11-20T09:03:56;100328.88;;;7.62;100.00
11710;BME280;5911;51.036;6.972;2022-11-20T09:06:26;100326.72;;;7.67;100.00
11710;BME280;5911;51.036;6.972;2022-11-20T09:08:57;100335.56;;;7.66;100.00
11710;BME280;5911;51.036;6.972;2022-11-20T09:11:31;100332.19;;;7.64;100.00
11710;BME280;5911;51.036;6.972;2022-11-20T09:13:59;100339.59;;;7.59;100.00
11710;BME280;5911;51.036;6.972;2022-11-20T09:16:29;100327.56;;;7.68;100.00
11710;BME280;5911;51.036;6.972;2022-11-20T09:18:59;100330.91;;;7.70;100.00
11710;BME280;5911;51.036;6.972;2022-11-20T09:21:50;100298.22;;;7.63;100.00
11710;BME280;5911;51.036;6.972;2022-11-20T09:24:31;100320.56;;;7.80;100.00
11710;BME280;5911;51.036;6.972;2022-11-20T09:27:06;100310.41;;;7.75;100.00
11710;BME280;5911;51.036;6.972;2022-11-20T09:29:34;100312.22;;;7.86;100.00
11710;BME280;5911;51.036;6.972;2022-11-20T09:32:02;100315.34;;;7.91;100.00
11710;BME280;5911;51.036;6.972;2022-11-20T09:34:31;100305.31;;;7.96;100.00
11710;BME280;5911;51.036;6.972;2022-11-20T09:36:59;100303.91;;;8.03;100.00
11710;BME280;5911;51.036;6.972;2022-11-20T09:39:32;100300.94;;;8.07;100.00
11710;BME280;5911;51.036;6.972;2022-11-20T09:42:19;100291.75;;;8.13;100.00
11710;BME280;5911;51.036;6.972;2022-11-20T09:45:05;100294.88;;;8.18;100.00
11710;BME280;5911;51.036;6.972;2022-11-20T09:47:48;100295.34;;;8.23;100.00
11710;BME280;5911;51.036;6.972;2022-11-20T09:50:29;100306.94;;;8.21;100.00
11710;BME280;5911;51.036;6.972;2022-11-20T09:53:10;100293.78;;;8.21;100.00
11710;BME280;5911;51.036;6.972;2022-11-20T09:55:39;100300.72;;;8.22;100.00
11710;BME280;5911;51.036;6.972;2022-11-20T09:58:14;100302.97;;;8.26;100.00
11710;BME280;5911;51.036;6.972;2022-11-20T10:00:43;100290.78;;;8.25;100.00
11710;BME280;5911;51.036;6.972;2022-11-20T10:03:16;100293.91;;;8.30;100.00
11710;BME280;5911;51.036;6.972;2022-11-20T10:05:48;100299.16;;;8.30;100.00
11710;BME280;5911;51.036;6.972;2022-11-20T10:08:21;100293.41;;;8.25;100.00
11710;BME280;5911;51.036;6.972;2022-11-20T10:10:53;100306.56;;;8.25;100.00
11710;BME280;5911;51.036;6.972;2022-11-20T10:13:33;100297.50;;;8.29;100.00
11710;BME280;5911;51.036;6.972;2022-11-20T10:16:12;100303.28;;;8.34;100.00
11710;BME280;5911;51.036;6.972;2022-11-20T10:18:54;100291.28;;;8.30;100.00
11710;BME280;5911;51.036;6.972;2022-11-20T10:21:38;100298.44;;;8.28;100.00
11710;BME280;5911;51.036;6.972;2022-11-20T10:24:27;100279.81;;;8.09;100.00
11710;BME280;5911;51.036;6.972;2022-11-20T10:27:09;100285.78;;;8.11;100.00
11710;BME280;5911;51.036;6.972;2022-11-20T10:29:44;100278.72;;;8.11;100.00
11710;BME280;5911;51.036;6.972;2022-11-20T10:32:15;100277.88;;;8.11;100.00
11710;BME280;5911;51.036;6.972;2022-11-20T10:34:50;100274.31;;;8.12;100.00
11710;BME280;5911;51.036;6.972;2022-11-20T10:37:23;100251.16;;;8.06;100.00
11710;BME280;5911;51.036;6.972;2022-11-20T10:39:55;100267.63;;;8.19;100.00
11710;BME280;5911;51.036;6.972;2022-11-20T10:42:31;100256.88;;;8.11;100.00
11710;BME280;5911;51.036;6.972;2022-11-20T10:45:09;100261.66;;;8.17;100.00
11710;BME280;5911;51.036;6.972;2022-11-20T10:47:41;100224.16;;;8.04;100.00
11710;BME280;5911;51.036;6.972;2022-11-20T10:50:11;100229.66;;;8.12;100.00
11710;BME280;5911;51.036;6.972;2022-11-20T10:52:56;100243.16;;;8.30;100.00
11710;BME280;5911;51.036;6.972;2022-11-20T10:55:32;100232.66;;;8.41;100.00
11710;BME280;5911;51.036;6.972;2022-11-20T10:58:09;100241.88;;;8.46;100.00
11710;BME280;5911;51.036;6.972;2022-11-20T11:00:41;100220.34;;;8.41;100.00
11710;BME280;5911;51.036;6.972;2022-11-20T11:03:20;100216.88;;;8.41;100.00
11710;BME280;5911;51.036;6.972;2022-11-20T11:05:55;100217.25;;;8.48;100.00
11710;BME280;5911;51.036;6.972;2022-11-20T11:08:32;100217.72;;;8.41;100.00
11710;BME280;5911;51.036;6.972;2022-11-20T11:11:12;100212.47;;;8.41;100.00
11710;BME280;5911;51.036;6.972;2022-11-20T11:13:43;100212.63;;;8.40;100.00
11710;BME280;5911;51.036;6.972;2022-11-20T11:16:20;100207.47;;;8.38;100.00
11710;BME280;5911;51.036;6.972;2022-11-20T11:18:49;100200.38;;;8.28;100.00
11710;BME280;5911;51.036;6.972;2022-11-20T11:21:23;100195.72;;;8.31;100.00
11710;BME280;5911;51.036;6.972;2022-11-20T11:24:00;100196.81;;;8.29;100.00
11710;BME280;5911;51.036;6.972;2022-11-20T11:26:57;100173.78;;;8.21;100.00
11710;BME280;5911;51.036;6.972;2022-11-20T11:29:25;100188.38;;;8.36;100.00
11710;BME280;5911;51.036;6.972;2022-11-20T11:32:04;100166.84;;;8.20;100.00
11710;BME280;5911;51.036;6.972;2022-11-20T11:34:33;100184.06;;;8.35;100.00
11710;BME280;5911;51.036;6.972;2022-11-20T11:37:01;100182.41;;;8.34;100.00
11710;BME280;5911;51.036;6.972;2022-11-20T11:39:33;100180.22;;;8.28;100.00
11710;BME280;5911;51.036;6.972;2022-11-20T11:42:01;100174.72;;;8.31;100.00
11710;BME280;5911;51.036;6.972;2022-11-20T11:44:31;100158.03;;;8.21;100.00
11710;BME280;5911;51.036;6.972;2022-11-20T11:47:22;100164.00;;;8.34;100.00
11710;BME280;5911;51.036;6.972;2022-11-20T11:50:01;100155.59;;;8.40;100.00
11710;BME280;5911;51.036;6.972;2022-11-20T11:52:29;100157.03;;;8.44;100.00
11710;BME280;5911;51.036;6.972;2022-11-20T11:55:02;100161.09;;;8.49;100.00
11710;BME280;5911;51.036;6.972;2022-11-20T11:57:41;100149.75;;;8.48;100.00
11710;BME280;5911;51.036;6.972;2022-11-20T12:00:13;100141.50;;;8.53;100.00
11710;BME280;5911;51.036;6.972;2022-11-20T12:02:52;100131.47;;;8.46;100.00
11710;BME280;5911;51.036;6.972;2022-11-20T12:05:23;100119.28;;;8.45;100.00
11710;BME280;5911;51.036;6.972;2022-11-20T12:07:56;100129.91;;;8.55;100.00
11710;BME280;5911;51.036;6.972;2022-11-20T12:10:39;100119.97;;;8.59;100.00
11710;BME280;5911;51.036;6.972;2022-11-20T12:13:18;100125.22;;;8.59;100.00
11710;BME280;5911;51.036;6.972;2022-11-20T12:15:48;100119.97;;;8.59;100.00
11710;BME280;5911;51.036;6.972;2022-11-20T12:18:18;100119.75;;;8.51;100.00
11710;BME280;5911;51.036;6.972;2022-11-20T12:20:54;100116.41;;;8.49;100.00
11710;BME280;5911;51.036;6.972;2022-11-20T12:23:30;100108.53;;;8.49;100.00
11710;BME280;5911;51.036;6.972;2022-11-20T12:26:08;100108.66;;;8.47;100.00
11710;BME280;5911;51.036;6.972;2022-11-20T12:28:55;100105.78;;;8.50;100.00
11710;BME280;5911;51.036;6.972;2022-11-20T12:31:45;100102.81;;;8.43;100.00
11710;BME280;5911;51.036;6.972;2022-11-20T12:34:35;100104.47;;;8.44;100.00
11710;BME280;5911;51.036;6.972;2022-11-20T12:37:13;100091.59;;;8.41;100.00
11710;BME280;5911;51.036;6.972;2022-11-20T12:39:47;100096.09;;;8.51;100.00
11710;BME280;5911;51.036;6.972;2022-11-20T12:42:42;100092.75;;;8.49;100.00
11710;BME280;5911;51.036;6.972;2022-11-20T12:46:01;100072.75;;;8.36;100.00
11710;BME280;5911;51.036;6.972;2022-11-20T12:48:45;100090.13;;;8.49;100.00
11710;BME280;5911;51.036;6.972;2022-11-20T12:51:27;100083.69;;;8.53;100.00
11710;BME280;5911;51.036;6.972;2022-11-20T12:54:18;100079.63;;;8.49;100.00
11710;BME280;5911;51.036;6.972;2022-11-20T12:56:56;100072.44;;;8.51;100.00
11710;BME280;5911;51.036;6.972;2022-11-20T12:59:51;100067.38;;;8.59;100.00
11710;BME280;5911;51.036;6.972;2022-11-20T13:02:27;100058.78;;;8.57;100.00
11710;BME280;5911;51.036;6.972;2022-11-20T13:05:09;100043.72;;;8.59;100.00
11710;BME280;5911;51.036;6.972;2022-11-20T13:07:44;100035.34;;;8.65;100.00
11710;BME280;5911;51.036;6.972;2022-11-20T13:10:17;100036.50;;;8.72;100.00
11710;BME280;5911;51.036;6.972;2022-11-20T13:12:49;100033.34;;;8.78;100.00
11710;BME280;5911;51.036;6.972;2022-11-20T13:15:35;100014.91;;;8.68;100.00
11710;BME280;5911;51.036;6.972;2022-11-20T13:18:08;100022.06;;;8.66;100.00
11710;BME280;5911;51.036;6.972;2022-11-20T13:20:42;100019.31;;;8.68;100.00
11710;BME280;5911;51.036;6.972;2022-11-20T13:23:23;100009.06;;;8.65;100.00
11710;BME280;5911;51.036;6.972;2022-11-20T13:25:52;100010.72;;;8.66;100.00
11710;BME280;5911;51.036;6.972;2022-11-20T13:28:30;100005.47;;;8.66;100.00